Time;durP1;ratioP1;P1;durP2;ratioP2;P2;SDS_P1;SDS_P2;PMS_P1;PMS_P2;Temp;Humidity;BMP_temperature;BMP_pressure;BME280_temperature;BME280_humidity;BME280_pressure;Samples;Min_cycle;Max_cycle;Signal;HPM_P1;HPM_P2
2021/10/30 00:00:48;;;;;;;4.50;4.10;;;;;;;13.73;58.34;99553.28;5072737;28;20507;-77
2021/10/30 00:03:15;;;;;;;5.13;4.00;;;;;;;13.68;58.08;99550.31;5080212;28;20879;-74
2021/10/30 00:05:42;;;;;;;5.63;4.10;;;;;;;13.47;58.64;99559.00;5062052;28;20911;-77
2021/10/30 00:08:08;;;;;;;5.50;4.00;;;;;;;13.58;58.49;99563.13;5077669;28;20501;-74
2021/10/30 00:10:35;;;;;;;5.63;4.27;;;;;;;13.45;58.90;99554.78;5079528;28;20475;-77
2021/10/30 00:13:03;;;;;;;4.37;3.43;;;;;;;13.38;59.16;99562.72;5064238;28;20487;-75
2021/10/30 00:15:30;;;;;;;5.37;4.30;;;;;;;13.46;59.32;99556.47;5062180;28;20524;-75
2021/10/30 00:17:57;;;;;;;9.17;4.87;;;;;;;13.42;59.33;99555.13;5074037;28;20444;-77
2021/10/30 00:20:24;;;;;;;5.87;5.27;;;;;;;13.46;59.22;99554.63;5080846;28;20504;-77
2021/10/30 00:22:50;;;;;;;5.10;4.60;;;;;;;13.31;59.54;99559.03;5080331;28;20988;-77
2021/10/30 00:25:17;;;;;;;5.63;4.00;;;;;;;13.51;59.33;99560.31;5072900;28;21060;-74
2021/10/30 00:27:44;;;;;;;6.23;4.10;;;;;;;13.38;59.41;99551.97;5059570;28;20524;-76
2021/10/30 00:30:12;;;;;;;5.07;4.10;;;;;;;13.50;59.18;99552.41;5046208;28;20457;-75
2021/10/30 00:32:38;;;;;;;4.53;4.13;;;;;;;13.41;59.47;99551.63;5057699;28;20490;-76
2021/10/30 00:35:06;;;;;;;4.60;4.20;;;;;;;13.35;59.71;99550.50;5042478;28;21092;-77
2021/10/30 00:37:33;;;;;;;4.77;4.10;;;;;;;13.34;59.52;99550.66;5048992;28;20469;-76
2021/10/30 00:39:59;;;;;;;5.43;4.10;;;;;;;13.36;60.21;99559.38;5047322;28;20496;-76
2021/10/30 00:42:26;;;;;;;5.37;4.00;;;;;;;13.32;60.07;99555.38;5041817;28;20911;-76
2021/10/30 00:44:52;;;;;;;4.60;4.20;;;;;;;13.31;59.84;99559.88;5048755;28;20572;-76
2021/10/30 00:47:20;;;;;;;5.07;4.27;;;;;;;13.39;59.95;99567.09;5055266;28;20511;-76
2021/10/30 00:49:47;;;;;;;5.73;4.10;;;;;;;13.24;59.81;99566.13;5062330;28;20497;-76
2021/10/30 00:52:15;;;;;;;6.47;4.43;;;;;;;13.21;60.45;99564.63;5041857;28;20508;-75
2021/10/30 00:54:44;;;;;;;6.60;4.10;;;;;;;13.12;60.75;99563.81;5054533;28;20488;-76
2021/10/30 00:57:11;;;;;;;5.30;3.90;;;;;;;13.10;60.95;99563.13;5053766;28;20476;-75
2021/10/30 00:59:38;;;;;;;6.20;4.37;;;;;;;13.17;60.64;99565.97;5061289;28;20441;-76
2021/10/30 01:02:05;;;;;;;4.97;3.83;;;;;;;13.27;60.57;99563.91;5041076;28;20516;-76
2021/10/30 01:04:33;;;;;;;10.00;4.97;;;;;;;13.10;61.03;99557.78;5049393;28;20505;-76
2021/10/30 01:07:01;;;;;;;4.87;4.10;;;;;;;13.06;61.12;99561.00;5041281;28;20564;-76
2021/10/30 01:09:27;;;;;;;6.50;4.33;;;;;;;13.12;60.89;99555.78;5056818;28;20560;-74
2021/10/30 01:11:54;;;;;;;5.27;4.70;;;;;;;13.31;60.75;99556.34;5053407;28;20505;-76
2021/10/30 01:14:21;;;;;;;6.10;4.60;;;;;;;13.20;60.49;99552.22;5051399;28;20492;-76
2021/10/30 01:16:48;;;;;;;5.63;4.07;;;;;;;13.24;60.78;99550.00;5059289;28;20504;-76
2021/10/30 01:19:15;;;;;;;4.63;4.23;;;;;;;13.22;60.92;99547.50;5059519;28;20945;-76
2021/10/30 01:21:43;;;;;;;5.37;4.30;;;;;;;13.18;61.17;99555.06;5057224;28;20512;-76
2021/10/30 01:24:10;;;;;;;5.10;4.43;;;;;;;13.21;61.54;99543.16;5045500;28;20481;-76
2021/10/30 01:26:37;;;;;;;5.47;4.70;;;;;;;13.14;61.54;99547.53;5050240;28;20523;-76
2021/10/30 01:29:04;;;;;;;7.10;4.50;;;;;;;13.03;61.46;99548.75;5041809;28;20484;-76
2021/10/30 01:31:31;;;;;;;6.20;4.37;;;;;;;13.10;61.35;99551.56;5057754;28;20559;-76
2021/10/30 01:33:58;;;;;;;6.00;4.80;;;;;;;13.15;61.47;99544.66;5044204;28;20477;-76
2021/10/30 01:36:25;;;;;;;7.60;5.07;;;;;;;12.96;62.00;99545.09;5040123;28;20487;-76
2021/10/30 01:38:53;;;;;;;6.47;4.80;;;;;;;13.07;62.00;99536.69;5042581;28;20935;-76
2021/10/30 01:41:23;;;;;;;8.00;5.17;;;;;;;13.06;62.43;99542.22;5039637;28;20501;-76
2021/10/30 01:43:50;;;;;;;7.90;5.23;;;;;;;13.01;62.34;99534.69;5041109;28;20468;-76
2021/10/30 01:46:17;;;;;;;7.57;5.03;;;;;;;12.99;62.55;99529.47;5054651;28;20484;-76
2021/10/30 01:48:45;;;;;;;8.87;5.80;;;;;;;12.91;62.96;99526.00;5051810;28;21068;-76
2021/10/30 01:51:11;;;;;;;6.83;5.30;;;;;;;12.88;63.39;99526.34;5059209;28;20501;-77
2021/10/30 01:53:38;;;;;;;6.53;5.83;;;;;;;12.74;63.39;99515.34;5043648;28;20484;-75
2021/10/30 01:56:07;;;;;;;9.10;6.03;;;;;;;12.59;64.25;99511.69;5042648;28;20531;-77
2021/10/30 01:58:33;;;;;;;6.73;5.57;;;;;;;12.53;64.10;99507.00;5061216;28;20448;-76
2021/10/30 02:01:01;;;;;;;6.60;5.60;;;;;;;12.46;64.56;99509.53;5049679;28;20505;-76
2021/10/30 02:03:29;;;;;;;8.30;6.50;;;;;;;12.33;64.91;99512.75;5040074;28;20454;-75
2021/10/30 02:05:56;;;;;;;7.50;6.20;;;;;;;12.31;65.13;99509.41;5041511;28;20508;-76
2021/10/30 02:08:23;;;;;;;6.60;5.23;;;;;;;12.34;65.33;99503.72;5041106;28;20454;-74
2021/10/30 02:10:50;;;;;;;7.87;6.47;;;;;;;12.23;65.35;99499.50;5046697;28;20484;-73
2021/10/30 02:13:19;;;;;;;7.77;6.63;;;;;;;12.29;65.41;99506.06;5059951;28;20504;-76
2021/10/30 02:15:45;;;;;;;8.23;6.47;;;;;;;12.24;65.80;99497.69;5050057;28;20893;-76
2021/10/30 02:18:13;;;;;;;8.87;7.30;;;;;;;12.23;65.75;99506.72;5044875;28;20533;-76
2021/10/30 02:20:40;;;;;;;9.57;7.57;;;;;;;12.24;65.70;99503.88;5048307;28;20529;-76
2021/10/30 02:23:07;;;;;;;9.30;6.70;;;;;;;12.18;66.16;99496.50;5046106;28;20473;-76
2021/10/30 02:25:33;;;;;;;8.40;7.30;;;;;;;12.24;65.64;99482.44;5058795;28;20996;-74
2021/10/30 02:28:00;;;;;;;8.43;7.17;;;;;;;12.19;65.82;99486.66;5059551;28;20484;-77
2021/10/30 02:30:28;;;;;;;9.53;7.67;;;;;;;12.01;66.40;99492.16;5045094;28;20499;-75
2021/10/30 02:32:55;;;;;;;8.43;7.10;;;;;;;12.08;66.52;99492.34;5040514;28;20474;-77
2021/10/30 02:35:21;;;;;;;8.87;7.63;;;;;;;12.02;66.66;99483.13;5054060;28;20453;-77
2021/10/30 02:37:48;;;;;;;7.80;7.00;;;;;;;12.02;66.69;99483.97;5046890;28;20457;-77
2021/10/30 02:40:15;;;;;;;10.80;8.00;;;;;;;11.90;66.92;99468.38;5039351;28;20488;-77
2021/10/30 02:42:41;;;;;;;12.10;9.00;;;;;;;11.97;66.54;99454.16;5044235;28;20478;-77
2021/10/30 02:45:09;;;;;;;12.60;8.73;;;;;;;11.86;66.83;99468.72;5048207;28;20469;-76
2021/10/30 02:47:37;;;;;;;10.00;7.77;;;;;;;11.86;67.05;99459.84;5042212;28;20449;-77
2021/10/30 02:50:05;;;;;;;11.27;8.97;;;;;;;11.86;67.09;99459.84;5058097;28;20533;-76
2021/10/30 02:52:32;;;;;;;11.10;8.13;;;;;;;11.84;67.22;99470.72;5054632;28;20473;-77
2021/10/30 02:54:58;;;;;;;10.23;8.30;;;;;;;11.86;67.16;99465.22;5056314;28;20561;-77
2021/10/30 02:57:25;;;;;;;10.93;8.80;;;;;;;11.63;67.78;99457.84;5048817;28;20544;-75
2021/10/30 02:59:54;;;;;;;12.60;8.97;;;;;;;11.49;68.27;99456.66;5049107;28;20441;-76
2021/10/30 03:02:20;;;;;;;11.63;9.33;;;;;;;11.50;68.27;99446.78;5060627;28;20542;-76
2021/10/30 03:04:48;;;;;;;12.70;10.47;;;;;;;11.38;68.61;99442.78;5043576;28;20505;-75
2021/10/30 03:07:15;;;;;;;13.60;10.90;;;;;;;11.23;69.27;99432.72;5053081;28;20531;-77
2021/10/30 03:09:47;;;;;;;12.17;10.30;;;;;;;11.26;69.21;99440.41;5056702;28;20454;-76
2021/10/30 03:12:14;;;;;;;13.47;11.23;;;;;;;11.22;69.71;99431.03;5046459;28;20513;-76
2021/10/30 03:14:41;;;;;;;17.23;11.60;;;;;;;11.12;69.93;99414.28;5051223;28;20477;-77
2021/10/30 03:17:07;;;;;;;15.23;12.20;;;;;;;10.95;70.69;99431.31;5052495;28;20913;-76
2021/10/30 03:19:34;;;;;;;16.30;11.47;;;;;;;10.84;70.96;99429.78;5043560;28;20517;-79
2021/10/30 03:22:02;;;;;;;16.40;13.10;;;;;;;10.83;71.20;99418.25;5052613;28;20476;-77
2021/10/30 03:24:29;;;;;;;13.57;11.63;;;;;;;10.74;71.33;99414.72;5058807;28;20470;-76
2021/10/30 03:26:55;;;;;;;15.00;12.40;;;;;;;10.77;71.53;99410.06;5059118;28;20523;-77
2021/10/30 03:29:22;;;;;;;17.43;13.10;;;;;;;10.60;71.99;99407.31;5048538;28;21011;-75
2021/10/30 03:31:48;;;;;;;13.73;12.33;;;;;;;10.57;72.03;99412.97;5056508;28;20504;-76
2021/10/30 03:34:15;;;;;;;19.27;13.20;;;;;;;10.50;72.20;99410.13;5056324;28;20525;-77
2021/10/30 03:36:42;;;;;;;17.40;13.07;;;;;;;10.43;72.40;99393.03;5043138;28;20465;-78
2021/10/30 03:39:10;;;;;;;16.50;12.57;;;;;;;10.37;72.66;99404.38;5045301;28;20540;-78
2021/10/30 03:41:36;;;;;;;20.97;13.43;;;;;;;10.31;72.93;99402.31;5041860;28;20477;-77
2021/10/30 03:44:03;;;;;;;17.20;13.97;;;;;;;10.42;72.70;99409.25;5052644;28;20920;-78
2021/10/30 03:46:30;;;;;;;17.47;12.80;;;;;;;10.62;71.98;99415.16;5049802;28;20508;-78
2021/10/30 03:48:56;;;;;;;15.33;13.00;;;;;;;10.58;71.78;99411.97;5060306;28;20441;-78
2021/10/30 03:51:23;;;;;;;15.80;12.37;;;;;;;10.66;71.31;99411.16;5042205;28;20564;-77
2021/10/30 03:53:50;;;;;;;15.60;12.13;;;;;;;10.62;71.30;99407.97;5047145;28;20489;-77
2021/10/30 03:56:18;;;;;;;16.30;12.87;;;;;;;10.60;71.47;99404.63;5041397;28;20508;-77
2021/10/30 03:58:44;;;;;;;17.87;12.80;;;;;;;10.63;71.37;99400.81;5044514;28;20473;-77
2021/10/30 04:01:11;;;;;;;16.57;13.30;;;;;;;10.69;71.02;99397.47;5052831;28;20942;-76
2021/10/30 04:03:37;;;;;;;18.50;13.40;;;;;;;10.61;71.14;99392.13;5061867;28;20460;-75
2021/10/30 04:06:04;;;;;;;20.87;13.10;;;;;;;10.62;71.15;99393.78;5041857;28;20926;-77
2021/10/30 04:08:31;;;;;;;19.23;14.10;;;;;;;10.48;71.40;99403.25;5051373;28;20465;-77
2021/10/30 04:10:57;;;;;;;16.10;13.60;;;;;;;10.58;71.12;99401.28;5043035;28;20497;-77
2021/10/30 04:13:25;;;;;;;16.80;12.20;;;;;;;10.47;71.57;99396.25;5042796;28;20469;-77
2021/10/30 04:15:52;;;;;;;18.57;14.37;;;;;;;10.49;71.29;99391.56;5041614;28;20509;-77
2021/10/30 04:18:18;;;;;;;20.90;13.23;;;;;;;10.44;71.59;99386.72;5044206;28;20465;-77
2021/10/30 04:20:45;;;;;;;16.67;13.60;;;;;;;10.37;71.64;99396.38;5060247;28;20496;-73
2021/10/30 04:23:12;;;;;;;16.57;13.77;;;;;;;10.34;72.01;99392.16;5060489;28;20459;-76
2021/10/30 04:25:38;;;;;;;18.47;14.20;;;;;;;10.31;72.10;99388.94;5058886;28;20576;-73
2021/10/30 04:28:05;;;;;;;16.20;14.30;;;;;;;10.38;71.95;99395.38;5057037;28;20446;-77
2021/10/30 04:30:33;;;;;;;17.07;13.67;;;;;;;10.36;71.65;99395.53;5057743;28;20505;-75
2021/10/30 04:33:00;;;;;;;19.67;13.60;;;;;;;10.40;71.93;99393.38;5046739;28;20536;-76
2021/10/30 04:35:27;;;;;;;21.37;15.27;;;;;;;10.29;72.12;99396.28;5056672;28;20494;-73
2021/10/30 04:37:53;;;;;;;19.60;14.70;;;;;;;10.31;72.29;99379.16;5046299;28;20487;-76
2021/10/30 04:40:20;;;;;;;21.23;14.70;;;;;;;10.24;72.28;99380.75;5048600;28;20820;-76
2021/10/30 04:42:47;;;;;;;18.60;15.30;;;;;;;10.05;72.95;99381.84;5048983;28;20469;-76
2021/10/30 04:45:13;;;;;;;19.50;15.53;;;;;;;10.11;72.59;99386.53;5050688;28;20488;-74
2021/10/30 04:47:41;;;;;;;18.07;13.60;;;;;;;10.22;72.42;99377.38;5059084;28;20507;-76
2021/10/30 04:50:08;;;;;;;18.43;14.43;;;;;;;10.19;72.29;99380.41;5060519;28;20529;-75
2021/10/30 04:52:35;;;;;;;16.00;13.60;;;;;;;10.29;72.15;99374.91;5058112;28;20445;-76
2021/10/30 04:55:02;;;;;;;20.30;15.50;;;;;;;10.27;72.07;99368.91;5059787;28;20508;-76
2021/10/30 04:57:28;;;;;;;18.50;15.23;;;;;;;10.23;72.08;99371.06;5059760;28;20995;-77
2021/10/30 04:59:55;;;;;;;17.80;14.20;;;;;;;10.35;71.56;99371.66;5041607;28;20513;-73
2021/10/30 05:02:21;;;;;;;18.50;14.40;;;;;;;10.49;70.60;99365.69;5057030;28;20515;-77
2021/10/30 05:04:49;;;;;;;17.70;14.40;;;;;;;10.51;70.78;99362.84;5050602;28;20476;-77
2021/10/30 05:07:16;;;;;;;19.90;13.47;;;;;;;10.55;70.46;99359.69;5058395;28;21059;-77
2021/10/30 05:09:43;;;;;;;18.70;14.03;;;;;;;10.42;70.75;99351.28;5059096;28;20484;-77
2021/10/30 05:12:10;;;;;;;16.93;13.87;;;;;;;10.44;70.64;99348.47;5046517;28;20505;-77
2021/10/30 05:14:37;;;;;;;14.67;12.67;;;;;;;10.47;70.88;99348.97;5061655;28;20547;-76
2021/10/30 05:17:04;;;;;;;16.90;13.17;;;;;;;10.39;70.42;99348.13;5058245;28;20485;-78
2021/10/30 05:19:30;;;;;;;19.30;14.97;;;;;;;10.51;70.44;99344.16;5060944;28;20845;-79
2021/10/30 05:21:58;;;;;;;17.80;14.03;;;;;;;10.55;70.21;99354.34;5040462;28;20478;-75
2021/10/30 05:24:25;;;;;;;17.10;13.30;;;;;;;10.54;69.79;99349.16;5047196;28;20453;-78
2021/10/30 05:26:52;;;;;;;15.43;13.37;;;;;;;10.65;69.36;99354.19;5054596;28;20552;-75
2021/10/30 05:29:18;;;;;;;17.63;13.23;;;;;;;10.74;69.45;99349.69;5061186;28;20477;-76
2021/10/30 05:31:45;;;;;;;15.60;12.33;;;;;;;10.75;69.12;99346.03;5058748;28;20513;-78
2021/10/30 05:34:12;;;;;;;19.13;13.10;;;;;;;10.82;68.89;99355.06;5049920;28;20448;-78
2021/10/30 05:36:39;;;;;;;19.70;14.40;;;;;;;10.61;69.25;99349.38;5060782;28;20500;-76
2021/10/30 05:39:12;;;;;;;18.17;14.43;;;;;;;10.61;69.48;99344.00;5051768;28;20452;-78
2021/10/30 05:41:39;;;;;;;19.27;14.00;;;;;;;10.80;68.60;99345.53;5047284;28;20516;-77
2021/10/30 05:44:06;;;;;;;18.53;13.73;;;;;;;10.73;68.66;99343.53;5058932;28;20512;-78
2021/10/30 05:46:33;;;;;;;15.80;12.80;;;;;;;10.68;69.07;99348.53;5058080;28;20553;-79
2021/10/30 05:49:00;;;;;;;17.00;13.30;;;;;;;10.68;68.52;99345.03;5048264;28;20873;-78
2021/10/30 05:51:27;;;;;;;20.37;15.00;;;;;;;10.79;68.50;99341.19;5047819;28;20485;-77
2021/10/30 05:53:53;;;;;;;19.67;13.63;;;;;;;10.91;68.01;99340.72;5060597;28;20465;-78
2021/10/30 05:56:21;;;;;;;18.40;12.00;;;;;;;10.98;67.51;99337.38;5051209;28;20498;-79
2021/10/30 05:58:48;;;;;;;17.60;12.80;;;;;;;10.91;67.04;99335.34;5042078;28;20512;-79
2021/10/30 06:01:14;;;;;;;16.30;11.57;;;;;;;10.96;67.05;99342.06;5052351;28;20505;-78
2021/10/30 06:03:41;;;;;;;16.30;11.93;;;;;;;11.03;66.66;99343.06;5043879;28;20462;-77
2021/10/30 06:06:09;;;;;;;16.20;12.23;;;;;;;11.14;66.18;99342.72;5051744;28;20472;-77
2021/10/30 06:08:35;;;;;;;14.80;12.20;;;;;;;11.23;65.98;99343.56;5045256;28;20437;-76
2021/10/30 06:11:02;;;;;;;17.83;12.47;;;;;;;11.25;65.05;99338.91;5048560;28;20493;-76
2021/10/30 06:13:30;;;;;;;14.03;11.20;;;;;;;11.40;64.54;99345.25;5059947;28;20531;-78
2021/10/30 06:15:57;;;;;;;13.87;11.20;;;;;;;11.49;64.49;99341.56;5045735;28;20516;-80
2021/10/30 06:18:24;;;;;;;12.93;11.30;;;;;;;11.50;64.07;99326.34;5048521;28;20465;-81
2021/10/30 06:20:51;;;;;;;12.73;9.90;;;;;;;11.64;64.40;99327.50;5060830;28;20469;-84
2021/10/30 06:23:17;;;;;;;13.87;10.10;;;;;;;11.67;64.65;99317.28;5059878;28;20481;-82
2021/10/30 06:25:45;;;;;;;14.57;10.40;;;;;;;11.67;64.77;99327.97;5049065;28;20726;-81
2021/10/30 06:28:12;;;;;;;16.63;11.20;;;;;;;11.61;64.79;99319.78;5058133;28;20476;-78
2021/10/30 06:30:40;;;;;;;14.73;10.97;;;;;;;11.62;65.71;99319.63;5063892;28;20468;-80
2021/10/30 06:33:07;;;;;;;15.40;11.43;;;;;;;11.50;65.50;99308.44;5061405;28;20484;-81
2021/10/30 06:35:34;;;;;;;13.67;11.57;;;;;;;11.35;66.31;99309.28;5043602;28;20536;-81
2021/10/30 06:38:01;;;;;;;14.70;12.20;;;;;;;11.41;66.63;99316.66;5052953;28;20440;-81
2021/10/30 06:40:28;;;;;;;15.07;11.50;;;;;;;11.24;67.03;99322.00;5057340;28;20472;-82
2021/10/30 06:42:54;;;;;;;14.67;11.50;;;;;;;11.25;66.86;99314.84;5044630;28;20698;-82
2021/10/30 06:45:21;;;;;;;15.20;11.60;;;;;;;11.34;66.07;99315.66;5043390;28;20449;-81
2021/10/30 06:47:49;;;;;;;14.07;11.33;;;;;;;11.33;65.98;99317.47;5045183;28;20511;-81
2021/10/30 06:50:22;;;;;;;12.93;10.07;;;;;;;11.30;65.25;99307.09;5048576;28;20434;-79
2021/10/30 06:52:51;;;;;;;13.33;10.73;;;;;;;11.43;65.58;99293.22;5064282;28;20480;-81
2021/10/30 06:55:18;;;;;;;12.20;9.50;;;;;;;11.53;65.14;99293.88;5063106;28;20457;-82
2021/10/30 06:57:45;;;;;;;14.03;10.40;;;;;;;11.54;64.36;99284.84;5064257;28;20484;-80
2021/10/30 07:00:13;;;;;;;13.43;10.13;;;;;;;11.68;63.61;99284.16;5062121;28;20430;-82
2021/10/30 07:02:40;;;;;;;14.07;10.13;;;;;;;11.69;63.75;99295.69;5061887;28;20460;-82
2021/10/30 07:05:09;;;;;;;11.67;9.27;;;;;;;11.72;63.45;99300.69;5059240;28;20452;-82
2021/10/30 07:07:36;;;;;;;10.97;8.03;;;;;;;11.78;62.88;99297.31;5055205;28;20477;-82
2021/10/30 07:10:03;;;;;;;10.20;8.63;;;;;;;11.81;62.82;99298.84;5044101;28;20942;-81
2021/10/30 07:12:31;;;;;;;11.47;8.37;;;;;;;11.89;62.91;99293.47;5042452;28;20469;-83
2021/10/30 07:14:58;;;;;;;10.07;8.00;;;;;;;11.77;62.57;99294.81;5064171;28;20448;-82
2021/10/30 07:17:25;;;;;;;11.90;8.23;;;;;;;11.82;62.60;99290.63;5049881;28;20478;-81
2021/10/30 07:19:52;;;;;;;10.70;8.30;;;;;;;11.90;62.88;99294.28;5051654;28;20518;-81
2021/10/30 07:22:20;;;;;;;11.47;7.97;;;;;;;11.98;63.08;99284.41;5062819;28;20932;-81
2021/10/30 07:24:47;;;;;;;12.17;9.07;;;;;;;11.98;62.71;99286.25;5052154;28;20529;-82
2021/10/30 07:27:16;;;;;;;9.97;7.80;;;;;;;12.02;62.81;99296.44;5054460;28;20559;-78
2021/10/30 07:29:46;;;;;;;10.13;8.73;;;;;;;12.03;62.92;99298.13;5063210;28;20433;-72
2021/10/30 07:32:13;;;;;;;8.67;6.60;;;;;;;11.99;62.81;99298.63;5051182;28;20504;-72
2021/10/30 07:34:40;;;;;;;10.00;7.50;;;;;;;11.99;63.03;99296.78;5042418;28;20490;-80
2021/10/30 07:37:06;;;;;;;8.90;7.43;;;;;;;12.13;63.43;99297.06;5042590;28;20473;-79
2021/10/30 07:39:35;;;;;;;14.23;7.40;;;;;;;11.88;63.98;99303.31;5047789;28;20464;-79
2021/10/30 07:42:02;;;;;;;9.10;6.53;;;;;;;12.04;63.50;99304.31;5056058;28;20552;-80
2021/10/30 07:44:29;;;;;;;9.63;7.10;;;;;;;12.04;63.54;99304.31;5058678;28;20537;-79
2021/10/30 07:46:55;;;;;;;8.23;7.00;;;;;;;12.11;63.89;99312.50;5059546;28;20503;-79
2021/10/30 07:49:23;;;;;;;8.00;6.30;;;;;;;12.05;62.68;99309.50;5052375;28;20438;-80
2021/10/30 07:51:50;;;;;;;8.30;6.90;;;;;;;12.16;63.37;99299.41;5062968;28;20469;-80
2021/10/30 07:54:16;;;;;;;8.00;7.03;;;;;;;12.20;62.00;99298.03;5052423;28;20468;-80
2021/10/30 07:56:44;;;;;;;7.30;6.13;;;;;;;12.27;62.55;99308.91;5043010;28;21091;-81
2021/10/30 07:59:11;;;;;;;9.17;6.53;;;;;;;12.20;63.34;99324.84;5043434;28;20473;-80
2021/10/30 08:01:38;;;;;;;9.57;7.97;;;;;;;12.03;64.39;99321.38;5042520;28;20539;-81
2021/10/30 08:04:05;;;;;;;12.40;8.90;;;;;;;11.94;64.95;99325.09;5048533;28;20456;-81
2021/10/30 08:06:32;;;;;;;12.07;9.03;;;;;;;11.64;66.40;99322.13;5062401;28;20542;-80
2021/10/30 08:08:59;;;;;;;10.30;7.87;;;;;;;11.50;66.40;99323.66;5062996;28;20493;-81
2021/10/30 08:11:26;;;;;;;15.03;10.33;;;;;;;11.45;67.38;99307.28;5047675;28;20853;-81
2021/10/30 08:13:54;;;;;;;12.57;9.10;;;;;;;11.33;67.60;99297.94;5043019;28;20482;-79
2021/10/30 08:16:21;;;;;;;11.13;9.50;;;;;;;11.05;68.27;99307.13;5060468;28;20476;-82
2021/10/30 08:18:48;;;;;;;11.07;9.33;;;;;;;11.05;69.94;99295.59;5063277;28;20433;-83
2021/10/30 08:21:14;;;;;;;14.27;10.23;;;;;;;10.96;69.12;99300.09;5062055;28;21048;-81
2021/10/30 08:23:41;;;;;;;14.60;11.87;;;;;;;11.02;69.19;99299.44;5062958;28;20471;-81
2021/10/30 08:26:08;;;;;;;11.73;10.00;;;;;;;11.01;68.37;99313.81;5061927;28;20522;-80
2021/10/30 08:28:34;;;;;;;13.73;10.10;;;;;;;10.82;69.16;99298.09;5062499;28;20477;-82
2021/10/30 08:31:03;;;;;;;13.60;11.50;;;;;;;11.00;67.82;99308.63;5062187;28;20484;-81
2021/10/30 08:33:29;;;;;;;13.00;9.80;;;;;;;11.10;67.83;99301.28;5062449;28;20461;-82
2021/10/30 08:35:56;;;;;;;12.83;11.27;;;;;;;11.15;68.38;99290.09;5061582;28;20469;-82
2021/10/30 08:38:23;;;;;;;13.50;10.30;;;;;;;11.01;68.96;99286.25;5062822;28;20460;-81
2021/10/30 08:40:49;;;;;;;13.43;9.77;;;;;;;11.04;69.18;99292.09;5043461;28;20938;-80
2021/10/30 08:43:20;;;;;;;11.70;9.37;;;;;;;10.86;68.11;99286.88;5042104;28;20482;-80
2021/10/30 08:45:47;;;;;;;13.30;10.33;;;;;;;10.93;68.34;99287.06;5057888;28;20467;-82
2021/10/30 08:48:16;;;;;;;10.63;8.93;;;;;;;11.20;68.02;99275.19;5080612;28;20472;-82
2021/10/30 08:50:42;;;;;;;12.23;10.57;;;;;;;11.17;67.11;99264.81;5081865;28;20487;-82
2021/10/30 08:53:09;;;;;;;13.20;9.10;;;;;;;11.01;67.90;99267.53;5082216;28;20467;-77
2021/10/30 08:55:36;;;;;;;14.13;10.13;;;;;;;10.99;67.36;99274.84;5079571;28;20463;-77
2021/10/30 08:58:07;;;;;;;13.87;9.87;;;;;;;11.15;65.90;99264.16;5081488;28;20452;-77
2021/10/30 09:00:38;;;;;;;11.07;9.50;;;;;;;11.40;67.56;99277.50;5070128;28;20485;-77
2021/10/30 09:03:05;;;;;;;11.60;9.13;;;;;;;11.29;65.88;99271.50;5051584;28;20519;-77
2021/10/30 09:05:34;;;;;;;11.10;9.87;;;;;;;11.53;66.13;99272.47;5080534;28;20542;-78
2021/10/30 09:08:03;;;;;;;11.13;9.07;;;;;;;11.63;67.27;99262.41;5081834;28;20475;-77
2021/10/30 09:10:32;;;;;;;11.40;8.90;;;;;;;11.77;65.99;99266.22;5064192;28;20568;-77
2021/10/30 09:13:01;;;;;;;13.27;9.73;;;;;;;11.85;67.13;99268.84;5060623;28;20453;-77
2021/10/30 09:15:34;;;;;;;11.30;9.00;;;;;;;11.61;66.30;99261.75;5060469;28;20477;-77
2021/10/30 09:18:02;;;;;;;10.67;9.20;;;;;;;11.38;67.78;99242.88;5060796;28;20437;-77
2021/10/30 09:20:35;;;;;;;12.90;10.00;;;;;;;11.28;66.98;99252.94;5060962;28;20997;-77
2021/10/30 09:23:02;;;;;;;10.50;9.07;;;;;;;11.24;68.60;99243.59;5059377;28;20468;-77
2021/10/30 09:25:29;;;;;;;12.80;9.33;;;;;;;11.07;67.66;99238.25;5046818;28;20538;-78
2021/10/30 09:28:00;;;;;;;12.70;10.80;;;;;;;11.03;68.22;99220.88;5041793;28;20517;-78
2021/10/30 09:30:28;;;;;;;15.93;11.50;;;;;;;11.12;68.65;99219.03;5049190;28;20477;-77
2021/10/30 09:32:57;;;;;;;12.27;10.63;;;;;;;11.15;67.31;99216.00;5047545;28;20625;-77
2021/10/30 09:35:27;;;;;;;10.63;9.07;;;;;;;11.21;66.64;99219.84;5048688;28;20507;-77
2021/10/30 09:37:56;;;;;;;11.13;9.37;;;;;;;11.22;67.08;99219.69;5061203;28;20596;-77
2021/10/30 09:40:25;;;;;;;11.97;9.70;;;;;;;11.38;66.56;99218.78;5054589;28;20492;-77
2021/10/30 09:42:53;;;;;;;11.40;9.20;;;;;;;11.22;66.76;99214.31;5039833;28;20496;-78
2021/10/30 09:45:20;;;;;;;10.97;9.10;;;;;;;11.23;66.84;99209.78;5057688;28;20511;-77
2021/10/30 09:48:01;;;;;;;10.33;9.10;;;;;;;11.27;66.63;99203.13;5053976;28;20477;-77
2021/10/30 09:50:31;;;;;;;12.87;9.00;;;;;;;11.17;66.21;99211.31;5057664;28;20476;-77
2021/10/30 09:53:00;;;;;;;10.40;8.87;;;;;;;11.45;66.63;99208.25;5040671;28;20461;-77
2021/10/30 09:55:28;;;;;;;10.60;9.30;;;;;;;11.40;65.55;99206.06;5039326;28;20493;-77
2021/10/30 09:58:02;;;;;;;12.90;8.37;;;;;;;11.52;65.84;99200.38;5044388;28;20492;-77
2021/10/30 10:00:30;;;;;;;9.60;8.30;;;;;;;11.45;64.77;99214.44;5048506;28;20477;-77
2021/10/30 10:03:01;;;;;;;14.03;9.40;;;;;;;11.52;64.28;99203.03;5053642;28;20460;-78
2021/10/30 10:05:29;;;;;;;9.87;8.50;;;;;;;11.47;63.83;99206.22;5058023;28;20846;-77
2021/10/30 10:07:57;;;;;;;9.03;7.93;;;;;;;11.56;63.04;99207.03;5057260;28;20750;-77
2021/10/30 10:10:25;;;;;;;11.73;8.47;;;;;;;11.47;63.03;99192.84;5065218;28;20911;-77
2021/10/30 10:12:53;;;;;;;10.67;8.70;;;;;;;11.43;64.36;99196.88;5049308;28;20457;-77
2021/10/30 10:15:23;;;;;;;11.97;8.33;;;;;;;11.49;63.56;99198.84;5041837;28;20446;-77
2021/10/30 10:17:51;;;;;;;8.87;7.33;;;;;;;11.70;62.24;99192.94;5042004;28;20469;-77
2021/10/30 10:20:18;;;;;;;11.23;7.30;;;;;;;11.77;63.77;99199.28;5042205;28;20446;-77
2021/10/30 10:22:45;;;;;;;14.43;8.30;;;;;;;11.91;60.61;99200.41;5050492;28;20565;-77
2021/10/30 10:25:30;;;;;;;9.87;8.33;;;;;;;12.15;61.29;99210.16;5060531;28;20457;-77
2021/10/30 10:28:17;;;;;;;14.47;9.77;;;;;;;11.96;59.94;99207.91;5050670;28;20493;-77
2021/10/30 10:30:58;;;;;;;12.60;8.60;;;;;;;12.18;59.86;99192.88;5048453;28;20479;-77
2021/10/30 10:33:25;;;;;;;14.43;8.53;;;;;;;12.26;59.71;99200.88;5061546;28;20478;-77
2021/10/30 10:36:21;;;;;;;9.00;7.73;;;;;;;12.53;60.41;99190.63;5060598;28;20532;-77
2021/10/30 10:39:15;;;;;;;11.30;8.50;;;;;;;12.51;59.81;99187.31;5042797;28;20470;-77
2021/10/30 10:42:03;;;;;;;9.63;7.80;;;;;;;12.36;59.96;99189.91;5041311;28;20532;-77
2021/10/30 10:44:54;;;;;;;8.63;7.73;;;;;;;12.38;61.25;99180.69;5042596;28;20725;-77
2021/10/30 10:47:54;;;;;;;10.37;8.60;;;;;;;12.28;61.05;99173.91;5043614;28;20507;-77
2021/10/30 10:50:24;;;;;;;10.40;8.00;;;;;;;12.29;60.64;99176.41;5059746;28;20514;-77
2021/10/30 10:53:19;;;;;;;9.43;7.97;;;;;;;12.31;60.16;99168.16;5059956;28;20457;-77
2021/10/30 10:56:08;;;;;;;11.40;8.50;;;;;;;12.43;60.71;99164.91;5060560;28;20567;-76
2021/10/30 10:59:19;;;;;;;9.50;7.33;;;;;;;12.43;60.40;99156.88;5054052;28;20438;-79
2021/10/30 11:02:18;;;;;;;12.57;9.90;;;;;;;12.40;61.62;99156.41;5051733;28;21120;-78
2021/10/30 11:05:27;;;;;;;13.23;8.77;;;;;;;12.42;61.02;99167.75;5041064;28;20449;-77
2021/10/30 11:08:28;;;;;;;14.87;9.10;;;;;;;12.52;61.52;99168.34;5022576;28;20469;-76
2021/10/30 11:11:18;;;;;;;10.60;8.70;;;;;;;12.33;62.00;99164.31;5036995;28;20474;-74
2021/10/30 11:13:53;;;;;;;10.57;9.47;;;;;;;12.57;62.45;99162.47;5018823;28;20493;-80
2021/10/30 11:16:28;;;;;;;12.03;8.17;;;;;;;12.52;62.04;99160.31;5031827;28;20477;-75
2021/10/30 11:19:09;;;;;;;9.87;8.10;;;;;;;12.51;61.71;99157.81;5018991;28;20468;-75
2021/10/30 11:21:39;;;;;;;10.13;8.37;;;;;;;12.57;61.87;99146.38;5037024;28;20488;-76
2021/10/30 11:24:30;;;;;;;10.10;7.00;;;;;;;12.56;58.92;99137.47;5041923;28;20464;-75
2021/10/30 11:26:58;;;;;;;10.70;6.90;;;;;;;12.63;61.84;99148.31;5015517;28;21205;-71
2021/10/30 11:29:26;;;;;;;6.97;6.27;;;;;;;12.63;59.81;99149.16;5026976;28;20854;-72
2021/10/30 11:32:02;;;;;;;6.43;5.63;;;;;;;12.44;56.01;99137.06;5038631;28;20502;-70